createdAt,value
2018-09-03T00:03:21.926Z,3.8
2018-09-03T00:08:24.295Z,2.3
2018-09-03T00:13:26.737Z,2
2018-09-03T00:18:28.909Z,3.9
2018-09-03T00:23:31.172Z,4.9
2018-09-03T00:28:33.416Z,3
2018-09-03T00:33:35.977Z,3.8
2018-09-03T00:38:38.141Z,2.5
2018-09-03T00:43:40.365Z,3.8
2018-09-03T00:48:42.635Z,2.7
2018-09-03T00:53:44.922Z,2.8
2018-09-03T00:58:47.303Z,2.3
2018-09-03T01:03:49.509Z,3.2
2018-09-03T01:08:51.754Z,4.3
2018-09-03T01:13:54.208Z,3
2018-09-03T01:18:56.393Z,4.4
2018-09-03T01:23:58.620Z,5.2
2018-09-03T01:29:00.990Z,4
2018-09-03T01:34:03.290Z,3.8
2018-09-03T01:39:05.636Z,3.8
2018-09-03T01:44:07.883Z,4.7
2018-09-03T01:49:10.166Z,3.4
2018-09-03T01:54:12.440Z,2.6
2018-09-03T01:59:14.906Z,4.2
2018-09-03T02:04:17.043Z,2.7
2018-09-03T02:09:19.393Z,3.5
2018-09-03T02:14:21.742Z,3.6
2018-09-03T02:19:24.046Z,4.5
2018-09-03T02:24:26.292Z,3.4
2018-09-03T02:29:28.574Z,3.7
2018-09-03T02:34:30.806Z,5.9
2018-09-03T02:39:33.044Z,4.3
2018-09-03T02:44:35.438Z,5.7
2018-09-03T02:49:37.617Z,5.1
2018-09-03T02:54:39.979Z,6.3
2018-09-03T02:59:42.332Z,4.6
2018-09-03T03:04:44.783Z,3.4
2018-09-03T03:09:46.844Z,4.2
2018-09-03T03:14:49.088Z,6.2
2018-09-03T03:19:51.538Z,4.5
2018-09-03T03:24:53.817Z,3.2
2018-09-03T03:29:56.008Z,4.6
2018-09-03T03:34:58.284Z,5.6
2018-09-03T03:40:00.555Z,4
2018-09-03T03:45:02.861Z,3.6
2018-09-03T03:50:05.233Z,4.2
2018-09-03T03:55:07.478Z,4.4
2018-09-03T04:00:09.818Z,6.4
2018-09-03T04:05:12.146Z,4.9
2018-09-03T04:10:14.470Z,5.7
2018-09-03T04:15:16.621Z,5.4
2018-09-03T04:20:18.958Z,5.9
2018-09-03T04:25:21.556Z,5.8
2018-09-03T04:30:23.590Z,6.1
2018-09-03T04:35:25.872Z,6.1
2018-09-03T04:40:28.162Z,7
2018-09-03T04:45:30.442Z,6.3
2018-09-03T04:50:32.802Z,5.2
2018-09-03T04:55:35.069Z,7.5
2018-09-03T05:00:37.411Z,6.8
2018-09-03T05:05:39.689Z,7.1
2018-09-03T05:10:41.895Z,6.9
2018-09-03T05:15:44.323Z,5.5
2018-09-03T05:20:46.513Z,5.9
2018-09-03T05:25:48.802Z,6.4
2018-09-03T05:30:51.090Z,7
2018-09-03T05:35:53.487Z,5.4
2018-09-03T05:40:55.787Z,4.7
2018-09-03T05:45:57.939Z,7.3
2018-09-03T05:51:00.399Z,5.8
2018-09-03T05:56:02.501Z,6.1
2018-09-03T06:01:04.932Z,6
2018-09-03T06:06:07.299Z,5.5
2018-09-03T06:11:09.456Z,6.5
2018-09-03T06:16:11.888Z,6.5
2018-09-03T06:21:14.020Z,4.4
2018-09-03T06:26:16.249Z,5.9
2018-09-03T06:31:18.756Z,4.2
2018-09-03T06:36:20.974Z,6.2
2018-09-03T06:41:23.189Z,5.4
2018-09-03T06:46:25.432Z,6.3
2018-09-03T06:51:27.842Z,8.1
2018-09-03T06:56:30.172Z,4.6
2018-09-03T07:01:32.543Z,6.3
2018-09-03T07:06:34.864Z,4.8
2018-09-03T07:11:36.961Z,7.2
2018-09-03T07:16:39.341Z,6.8
2018-09-03T07:21:41.537Z,8.2
2018-09-03T07:26:43.766Z,7.1
2018-09-03T07:31:46.166Z,6.1
2018-09-03T07:36:48.615Z,5.5
2018-09-03T07:41:50.771Z,7.9
2018-09-03T07:46:53.040Z,4.8
2018-09-03T07:51:55.377Z,6.4
2018-09-03T07:56:57.537Z,8.6
2018-09-03T08:01:59.947Z,8.4
2018-09-03T08:07:02.336Z,5.8
2018-09-03T08:12:04.552Z,6
2018-09-03T08:17:06.826Z,5
2018-09-03T08:22:09.105Z,8.6
2018-09-03T08:27:11.523Z,7
2018-09-03T08:32:13.660Z,7.7
2018-09-03T08:37:15.940Z,7.1
2018-09-03T08:42:18.250Z,8.2
2018-09-03T08:47:20.654Z,5.4
2018-09-03T08:52:22.936Z,6.8
2018-09-03T08:57:25.165Z,6.7
2018-09-03T09:02:27.449Z,8
2018-09-03T09:07:29.691Z,5.2
2018-09-03T09:12:31.952Z,5.7
2018-09-03T09:17:34.419Z,6.2
2018-09-03T09:22:36.634Z,5.3
2018-09-03T09:27:38.907Z,4.9
2018-09-03T09:32:41.286Z,6.1
2018-09-03T09:37:43.652Z,5.6
2018-09-03T09:42:45.724Z,6.7
2018-09-03T09:47:48.095Z,6.6
2018-09-03T09:52:50.558Z,5.1
2018-09-03T09:57:52.666Z,5.6
2018-09-03T10:02:54.970Z,5.4
2018-09-03T10:07:57.266Z,5.5
2018-09-03T10:12:59.636Z,7.3
2018-09-03T10:18:01.827Z,6.3
2018-09-03T10:23:04.145Z,5.3
2018-09-03T10:28:06.444Z,9.5
2018-09-03T10:33:08.852Z,7
2018-09-03T10:38:11.219Z,4.9
2018-09-03T10:43:13.408Z,5.9
2018-09-03T10:48:15.620Z,6.3
2018-09-03T10:53:18.038Z,8.3
2018-09-03T10:58:20.273Z,5.8
2018-09-03T11:03:22.535Z,4.9
2018-09-03T11:08:24.792Z,5.9
2018-09-03T11:13:27.097Z,4.9
2018-09-03T11:18:29.393Z,5.8
2018-09-03T11:23:31.758Z,6.4
2018-09-03T11:28:33.989Z,8.1
2018-09-03T11:33:36.292Z,4.9
2018-09-03T11:38:38.602Z,4.1
2018-09-03T11:43:40.953Z,3.8
2018-09-03T11:48:43.155Z,7.2
2018-09-03T11:53:45.364Z,3.5
2018-09-03T11:58:47.708Z,4.3
2018-09-03T12:03:50.133Z,2.6
2018-09-03T12:08:52.309Z,5.9
2018-09-03T12:13:54.652Z,3
2018-09-03T12:18:57.016Z,4.8
2018-09-03T12:23:59.348Z,5.1
2018-09-03T12:29:01.559Z,6
2018-09-03T12:34:03.813Z,5.9
2018-09-03T12:39:06.113Z,4.6
2018-09-03T12:44:08.475Z,5.8
2018-09-03T12:49:10.798Z,6.1
2018-09-03T12:54:12.993Z,3.5
2018-09-03T12:59:15.224Z,4.5
2018-09-03T13:04:17.563Z,4.6
2018-09-03T13:09:19.880Z,5
2018-09-03T13:14:22.169Z,6.2
2018-09-03T13:19:24.477Z,6.5
2018-09-03T13:24:26.798Z,5.3
2018-09-03T13:29:29.144Z,5.4
2018-09-03T13:34:31.346Z,6.1
2018-09-03T13:39:33.638Z,5
2018-09-03T13:44:35.996Z,4.6
2018-09-03T13:49:38.485Z,6.5
2018-09-03T13:54:40.527Z,5.1
2018-09-03T13:59:42.767Z,5.2
2018-09-03T14:04:45.102Z,6.3
2018-09-03T14:09:47.402Z,4.3
2018-09-03T14:14:49.794Z,5.4
2018-09-03T14:19:52.037Z,7.7
2018-09-03T14:24:54.292Z,4.1
2018-09-03T14:29:56.533Z,4.5
2018-09-03T14:34:58.851Z,5
2018-09-03T14:40:01.278Z,5.1
2018-09-03T14:45:03.615Z,5.9
2018-09-03T14:50:05.844Z,6.6
2018-09-03T14:55:08.135Z,5.1
2018-09-03T15:00:10.465Z,5.6
2018-09-03T15:05:12.607Z,4.6
2018-09-03T15:10:14.901Z,8.8
2018-09-03T15:15:17.346Z,7.7
2018-09-03T15:20:19.619Z,6.5
2018-09-03T15:25:21.800Z,6.3
2018-09-03T15:30:24.112Z,7.3
2018-09-03T15:35:26.447Z,4.7
2018-09-03T15:40:28.822Z,3.7
2018-09-03T15:45:30.960Z,6.6
2018-09-03T15:50:33.647Z,4.3
2018-09-03T15:55:35.636Z,6
2018-09-03T16:00:37.900Z,5.6
2018-09-03T16:05:40.178Z,4.5
2018-09-03T16:10:42.430Z,5.3
2018-09-03T16:15:44.781Z,5.1
2018-09-03T16:20:47.095Z,6.6
2018-09-03T16:25:49.294Z,4.4
2018-09-03T16:30:51.714Z,7.3
2018-09-03T16:35:53.992Z,6.5
2018-09-03T16:40:56.240Z,4.7
2018-09-03T16:45:58.465Z,5.3
2018-09-03T16:51:00.789Z,6.8
2018-09-03T16:56:03.050Z,5
2018-09-03T17:01:05.499Z,6.5
2018-09-03T17:06:07.743Z,5.5
2018-09-03T17:11:10.024Z,8.3
2018-09-03T17:16:12.347Z,5.3
2018-09-03T17:21:14.768Z,6.7
2018-09-03T17:26:16.766Z,6.2
2018-09-03T17:31:19.263Z,10.1
2018-09-03T17:36:21.391Z,8.2
2018-09-03T17:41:23.819Z,6.9
2018-09-03T17:51:28.381Z,7.3
2018-09-03T17:56:30.777Z,9.4
2018-09-03T18:01:32.997Z,7.6
2018-09-03T18:06:35.205Z,7
2018-09-03T18:11:37.498Z,6.3
2018-09-03T18:16:39.827Z,7.7
2018-09-03T18:21:42.346Z,6.3
2018-09-03T18:26:44.511Z,7
2018-09-03T18:31:46.735Z,8
2018-09-03T18:36:48.902Z,12.2
2018-09-03T18:41:51.395Z,6.9
2018-09-03T18:46:53.792Z,8.1
2018-09-03T18:51:55.881Z,6.9
2018-09-03T18:56:58.140Z,6.7
2018-09-03T19:02:00.516Z,10.7
2018-09-03T19:07:02.802Z,5.8
2018-09-03T19:12:05.182Z,7.6
2018-09-03T19:17:07.617Z,8.6
2018-09-03T19:22:09.813Z,8.1
2018-09-03T19:27:11.853Z,3.8
2018-09-03T19:32:14.421Z,6.1
2018-09-03T19:37:16.592Z,9.5
2018-09-03T19:42:18.714Z,9.7
2018-09-03T19:47:21.124Z,6.9
2018-09-03T19:52:23.647Z,6.9
2018-09-03T19:57:25.699Z,8.2
2018-09-03T20:02:27.906Z,8.8
2018-09-03T20:07:30.338Z,12.4
2018-09-03T20:12:32.738Z,8.7
2018-09-03T20:17:34.900Z,14.1
2018-09-03T20:22:37.149Z,9.9
2018-09-03T20:27:39.462Z,6.5
2018-09-03T20:32:41.714Z,8.5
2018-09-03T20:37:44.148Z,6.3
2018-09-03T20:42:46.359Z,8
2018-09-03T20:47:48.667Z,6.6
2018-09-03T20:52:50.929Z,6.9
2018-09-03T20:57:53.330Z,7.6
2018-09-03T21:02:55.658Z,7.9
2018-09-03T21:07:57.873Z,10.8
2018-09-03T21:13:00.124Z,14.4
2018-09-03T21:18:02.462Z,5.9
2018-09-03T21:23:04.733Z,13.4
2018-09-03T21:28:06.952Z,8.4
2018-09-03T21:33:09.290Z,11.7
2018-09-03T21:38:11.778Z,10.9
2018-09-03T21:43:13.911Z,7.2
2018-09-03T21:48:16.105Z,9.5
2018-09-03T21:53:18.429Z,5.7
2018-09-03T21:58:20.919Z,7.2
2018-09-03T22:03:23.192Z,7.8
2018-09-03T22:08:25.486Z,4.3
2018-09-03T22:13:27.645Z,8.6
2018-09-03T22:18:30.049Z,8.3
2018-09-03T22:23:32.320Z,6.8
2018-09-03T22:28:34.615Z,9.4
2018-09-03T22:33:36.781Z,10.1
2018-09-03T22:38:39.069Z,8.9
2018-09-03T22:43:41.429Z,10.3
2018-09-03T22:48:43.724Z,9.9
2018-09-03T22:53:45.998Z,9.9
2018-09-03T22:58:48.258Z,14.4
2018-09-03T23:03:50.611Z,11.7
2018-09-03T23:08:52.911Z,9.6
2018-09-03T23:13:55.279Z,17.4
2018-09-03T23:18:57.493Z,10.1
2018-09-03T23:23:59.767Z,15.7
2018-09-03T23:29:02.157Z,14.7
2018-09-03T23:34:04.352Z,18
2018-09-03T23:39:06.684Z,15
2018-09-03T23:44:09.056Z,15.1
2018-09-03T23:49:11.503Z,12.9
2018-09-03T23:54:13.538Z,11.8
2018-09-03T23:59:16.005Z,13.2
